createdAt,value
2022-08-27T00:01:52.691Z,60.47
2022-08-27T00:04:21.932Z,60.40
2022-08-27T00:06:51.149Z,59.82
2022-08-27T00:09:26.856Z,60.63
2022-08-27T00:11:58.744Z,61.13
2022-08-27T00:14:29.884Z,60.68
2022-08-27T00:16:59.395Z,60.66
2022-08-27T00:19:28.540Z,60.96
2022-08-27T00:21:58.068Z,60.05
2022-08-27T00:24:27.302Z,60.07
2022-08-27T00:26:58.228Z,61.18
2022-08-27T00:29:28.034Z,60.70
2022-08-27T00:31:59.948Z,60.64
2022-08-27T00:34:29.978Z,61.24
2022-08-27T00:36:59.269Z,61.43
2022-08-27T00:39:33.126Z,60.33
2022-08-27T00:42:03.802Z,60.38
2022-08-27T00:44:33.299Z,61.82
2022-08-27T00:47:08.009Z,61.65
2022-08-27T00:49:43.923Z,61.24
2022-08-27T00:52:22.083Z,62.44
2022-08-27T00:54:55.856Z,62.25
2022-08-27T00:57:27.929Z,62.31
2022-08-27T00:59:57.773Z,62.57
2022-08-27T01:02:32.084Z,62.15
2022-08-27T01:05:05.186Z,62.38
2022-08-27T01:07:41.900Z,62.76
2022-08-27T01:10:18.225Z,62.33
2022-08-27T01:12:53.493Z,61.82
2022-08-27T01:15:31.020Z,62.28
2022-08-27T01:18:05.805Z,62.44
2022-08-27T01:20:45.536Z,61.68
2022-08-27T01:23:26.287Z,62.63
2022-08-27T01:25:57.583Z,62.93
2022-08-27T01:28:35.781Z,61.80
2022-08-27T01:31:10.710Z,61.91
2022-08-27T01:33:41.760Z,62.24
2022-08-27T01:36:11.068Z,62.72
2022-08-27T01:38:43.615Z,62.91
2022-08-27T01:41:15.466Z,62.51
2022-08-27T01:43:45.927Z,62.77
2022-08-27T01:46:23.142Z,63.31
2022-08-27T01:48:52.599Z,62.46
2022-08-27T01:51:22.688Z,63.13
2022-08-27T01:53:51.961Z,62.85
2022-08-27T01:56:22.738Z,62.62
2022-08-27T01:58:52.450Z,63.05
2022-08-27T02:01:22.063Z,62.84
2022-08-27T02:03:51.301Z,63.52
2022-08-27T02:06:20.936Z,62.60
2022-08-27T02:08:50.740Z,63.53
2022-08-27T02:11:21.249Z,63.26
2022-08-27T02:13:50.650Z,63.46
2022-08-27T02:16:20.526Z,63.70
2022-08-27T02:18:49.758Z,63.71
2022-08-27T02:21:19.580Z,63.21
2022-08-27T02:23:48.794Z,62.92
2022-08-27T02:26:18.066Z,64.12
2022-08-27T02:28:49.909Z,63.59
2022-08-27T02:31:19.477Z,64.17
2022-08-27T02:33:49.037Z,63.60
2022-08-27T02:36:18.997Z,64.31
2022-08-27T02:38:48.301Z,64.55
2022-08-27T02:41:17.566Z,64.46
2022-08-27T02:43:47.119Z,63.97
2022-08-27T02:46:20.585Z,64.39
2022-08-27T02:48:49.894Z,64.04
2022-08-27T02:51:19.000Z,64.81
2022-08-27T02:53:49.010Z,64.09
2022-08-27T02:56:21.922Z,64.31
2022-08-27T02:58:51.469Z,64.74
2022-08-27T03:01:22.646Z,64.76
2022-08-27T03:03:51.984Z,64.88
2022-08-27T03:06:21.542Z,64.85
2022-08-27T03:08:52.280Z,65.06
2022-08-27T03:11:24.421Z,65.00
2022-08-27T03:13:54.402Z,65.29
2022-08-27T03:16:25.012Z,65.79
2022-08-27T03:18:53.504Z,65.75
2022-08-27T03:21:26.483Z,65.38
2022-08-27T03:23:55.977Z,65.92
2022-08-27T03:26:25.154Z,66.16
2022-08-27T03:28:54.250Z,65.32
2022-08-27T03:31:27.856Z,66.08
2022-08-27T03:34:00.032Z,66.39
2022-08-27T03:36:32.157Z,66.95
2022-08-27T03:39:01.532Z,65.75
2022-08-27T03:41:53.938Z,66.66
2022-08-27T03:44:21.693Z,66.08
2022-08-27T03:46:53.404Z,66.54
2022-08-27T03:49:24.204Z,66.24
2022-08-27T03:51:54.460Z,66.08
2022-08-27T03:54:25.128Z,66.55
2022-08-27T03:56:54.549Z,66.56
2022-08-27T03:59:23.627Z,66.02
2022-08-27T04:01:54.794Z,66.95
2022-08-27T04:04:24.887Z,66.49
2022-08-27T04:06:56.121Z,66.65
2022-08-27T04:09:28.673Z,66.60
2022-08-27T04:11:58.018Z,66.98
2022-08-27T04:14:27.698Z,67.45
2022-08-27T04:16:58.731Z,67.59
2022-08-27T04:19:30.485Z,68.30
2022-08-27T04:22:05.382Z,68.29
2022-08-27T04:24:38.178Z,68.12
2022-08-27T04:27:08.005Z,67.93
2022-08-27T04:29:37.152Z,67.73
2022-08-27T04:32:11.097Z,68.03
2022-08-27T04:34:40.493Z,67.84
2022-08-27T04:37:09.622Z,68.04
2022-08-27T04:39:39.595Z,68.64
2022-08-27T04:42:08.825Z,68.88
2022-08-27T04:44:37.973Z,68.08
2022-08-27T04:47:09.718Z,68.97
2022-08-27T04:49:39.312Z,68.66
2022-08-27T04:52:10.420Z,69.21
2022-08-27T04:54:40.503Z,68.66
2022-08-27T04:57:09.806Z,68.56
2022-08-27T04:59:39.925Z,68.89
2022-08-27T05:02:11.018Z,68.60
2022-08-27T05:04:42.112Z,69.20
2022-08-27T05:07:12.073Z,69.41
2022-08-27T05:09:41.727Z,69.08
2022-08-27T05:12:11.156Z,69.06
2022-08-27T05:14:40.323Z,68.77
2022-08-27T05:17:11.041Z,69.03
2022-08-27T05:19:40.310Z,69.25
2022-08-27T05:22:09.488Z,69.85
2022-08-27T05:24:38.937Z,69.90
2022-08-27T05:27:11.679Z,69.62
2022-08-27T05:29:42.340Z,69.76
2022-08-27T05:32:13.592Z,69.49
2022-08-27T05:34:42.831Z,70.00
2022-08-27T05:37:11.991Z,69.80
2022-08-27T05:39:41.100Z,69.56
2022-08-27T05:42:10.285Z,69.82
2022-08-27T05:44:41.420Z,69.91
2022-08-27T05:47:12.957Z,69.98
2022-08-27T05:49:42.255Z,69.65
2022-08-27T05:52:12.765Z,69.44
2022-08-27T05:54:41.916Z,70.12
2022-08-27T05:57:11.061Z,69.77
2022-08-27T05:59:58.174Z,70.05
2022-08-27T06:02:29.581Z,70.01
2022-08-27T06:04:58.990Z,69.53
2022-08-27T06:07:29.303Z,69.27
2022-08-27T06:09:59.285Z,69.31
2022-08-27T06:12:29.692Z,69.60
2022-08-27T06:14:58.853Z,69.60
2022-08-27T06:17:30.285Z,68.83
2022-08-27T06:19:59.468Z,69.10
2022-08-27T06:22:28.679Z,69.66
2022-08-27T06:24:58.528Z,69.52
2022-08-27T06:27:27.673Z,69.36
2022-08-27T06:29:56.859Z,69.44
2022-08-27T06:32:26.146Z,69.33
2022-08-27T06:34:56.952Z,69.06
2022-08-27T06:37:26.448Z,69.21
2022-08-27T06:39:55.603Z,68.27
2022-08-27T06:42:24.836Z,68.88
2022-08-27T06:44:55.576Z,68.13
2022-08-27T06:47:24.843Z,69.45
2022-08-27T06:49:55.602Z,68.22
2022-08-27T06:52:24.947Z,69.10
2022-08-27T06:54:54.185Z,68.29
2022-08-27T06:57:24.813Z,68.54
2022-08-27T06:59:54.157Z,68.63
2022-08-27T07:02:23.510Z,68.69
2022-08-27T07:04:56.427Z,67.59
2022-08-27T07:07:31.853Z,68.08
2022-08-27T07:10:07.610Z,68.41
2022-08-27T07:12:36.920Z,67.68
2022-08-27T07:15:10.676Z,66.66
2022-08-27T07:17:41.266Z,67.18
2022-08-27T07:20:15.982Z,68.55
2022-08-27T07:22:47.428Z,68.63
2022-08-27T07:25:20.510Z,68.42
2022-08-27T07:27:56.766Z,64.38
2022-08-27T07:30:27.849Z,67.20
2022-08-27T07:32:57.184Z,64.37
2022-08-27T07:35:27.901Z,62.76
2022-08-27T07:37:57.236Z,61.88
2022-08-27T07:40:26.685Z,62.14
2022-08-27T07:43:13.240Z,59.77
2022-08-27T07:45:48.755Z,58.32
2022-08-27T07:48:18.964Z,58.13
2022-08-27T07:50:49.739Z,59.09
2022-08-27T07:53:19.136Z,56.51
2022-08-27T07:55:49.650Z,56.94
2022-08-27T07:58:22.046Z,52.59
2022-08-27T08:00:54.167Z,51.31
2022-08-27T08:03:23.476Z,53.74
2022-08-27T08:05:54.466Z,52.23
2022-08-27T08:08:25.547Z,52.78
2022-08-27T08:10:59.130Z,52.53
2022-08-27T08:13:32.146Z,52.32
2022-08-27T08:16:01.645Z,49.83
2022-08-27T08:18:33.711Z,48.62
2022-08-27T08:21:09.213Z,47.88
2022-08-27T08:23:40.148Z,49.46
2022-08-27T08:26:13.456Z,48.92
2022-08-27T08:28:43.254Z,48.07
2022-08-27T08:31:13.224Z,48.35
2022-08-27T08:33:45.463Z,47.80
2022-08-27T08:36:18.543Z,48.00
2022-08-27T08:38:48.428Z,47.20
2022-08-27T08:41:40.687Z,43.75
2022-08-27T08:44:32.036Z,42.90
2022-08-27T08:47:11.139Z,43.19
2022-08-27T08:49:50.724Z,42.73
2022-08-27T08:52:33.604Z,42.89
2022-08-27T08:55:24.693Z,41.52
2022-08-27T08:58:08.822Z,42.68
2022-08-27T09:00:44.034Z,40.31
2022-08-27T09:03:20.182Z,41.67
2022-08-27T09:05:57.096Z,40.27
2022-08-27T09:08:41.048Z,40.27
2022-08-27T09:11:22.716Z,40.04
2022-08-27T09:13:59.688Z,39.71
2022-08-27T09:16:29.184Z,39.86
2022-08-27T09:19:03.276Z,38.21
2022-08-27T09:21:50.081Z,36.98
2022-08-27T09:24:29.415Z,36.13
2022-08-27T09:26:58.884Z,37.44
2022-08-27T09:29:31.293Z,35.61
2022-08-27T09:32:07.212Z,36.22
2022-08-27T09:34:42.667Z,34.89
2022-08-27T09:37:16.696Z,35.27
2022-08-27T09:39:53.092Z,34.23
2022-08-27T09:42:31.620Z,34.18
2022-08-27T09:45:03.680Z,34.54
2022-08-27T09:47:44.678Z,32.56
2022-08-27T09:50:17.282Z,31.87
2022-08-27T09:52:56.092Z,30.86
2022-08-27T09:55:41.411Z,31.05
2022-08-27T09:58:22.026Z,30.58
2022-08-27T10:01:01.189Z,30.45
2022-08-27T10:03:33.446Z,30.63
2022-08-27T10:06:03.000Z,30.39
2022-08-27T10:08:39.877Z,29.06
2022-08-27T10:11:16.455Z,29.93
2022-08-27T10:13:57.789Z,29.41
2022-08-27T10:16:56.472Z,29.08
2022-08-27T10:19:47.587Z,28.75
2022-08-27T10:22:35.277Z,28.66
2022-08-27T10:25:18.481Z,27.71
2022-08-27T10:28:06.055Z,27.52
2022-08-27T10:30:53.608Z,27.70
2022-08-27T10:33:32.922Z,28.49
2022-08-27T10:36:11.287Z,28.93
2022-08-27T10:38:45.180Z,29.88
2022-08-27T10:41:23.465Z,29.32
2022-08-27T10:44:26.483Z,30.31
2022-08-27T10:47:15.760Z,29.89
2022-08-27T10:49:54.480Z,29.59
2022-08-27T10:52:30.138Z,30.08
2022-08-27T10:55:06.970Z,29.30
2022-08-27T10:58:01.012Z,28.78
2022-08-27T11:00:43.156Z,28.67
2022-08-27T11:03:16.769Z,28.29
2022-08-27T11:05:50.313Z,27.92
2022-08-27T11:08:24.798Z,27.85
2022-08-27T11:11:13.681Z,27.86
2022-08-27T11:13:54.360Z,28.37
2022-08-27T11:16:45.636Z,28.11
2022-08-27T11:19:24.224Z,28.07
2022-08-27T11:22:08.377Z,28.19
2022-08-27T11:24:53.759Z,27.97
2022-08-27T11:27:28.858Z,28.22
2022-08-27T11:30:04.251Z,28.16
2022-08-27T11:32:49.303Z,28.14
2022-08-27T11:35:24.139Z,28.44
2022-08-27T11:38:33.951Z,28.33
2022-08-27T11:41:18.750Z,29.00
2022-08-27T11:43:48.472Z,29.02
2022-08-27T11:46:25.907Z,29.11
2022-08-27T11:49:02.874Z,29.10
2022-08-27T11:51:36.055Z,29.53
2022-08-27T11:54:09.070Z,28.81
2022-08-27T11:56:43.300Z,28.71
2022-08-27T11:59:22.643Z,28.47
2022-08-27T12:01:54.241Z,28.89
2022-08-27T12:04:39.744Z,28.94
2022-08-27T12:07:31.910Z,28.46
2022-08-27T12:10:28.507Z,28.94
2022-08-27T12:13:16.198Z,28.32
2022-08-27T12:15:58.440Z,28.49
2022-08-27T12:18:50.796Z,28.09
2022-08-27T12:21:32.147Z,28.54
2022-08-27T12:24:22.125Z,28.28
2022-08-27T12:27:00.327Z,29.08
2022-08-27T12:29:41.030Z,29.85
2022-08-27T12:32:27.908Z,30.75
2022-08-27T12:35:13.492Z,30.80
2022-08-27T12:37:50.415Z,30.77
2022-08-27T12:40:26.502Z,30.63
2022-08-27T12:43:08.012Z,30.89
2022-08-27T12:45:46.945Z,31.32
2022-08-27T12:48:20.885Z,31.27
2022-08-27T12:50:55.320Z,31.27
2022-08-27T12:53:43.324Z,31.43
2022-08-27T12:56:46.273Z,30.38
2022-08-27T12:59:43.339Z,30.60
2022-08-27T13:02:33.015Z,31.25
2022-08-27T13:05:10.194Z,30.57
2022-08-27T13:07:45.073Z,29.67
2022-08-27T13:10:20.829Z,29.38
2022-08-27T13:13:03.943Z,28.32
2022-08-27T13:15:35.291Z,27.96
2022-08-27T13:18:07.772Z,28.19
2022-08-27T13:20:41.304Z,28.11
2022-08-27T13:23:24.188Z,27.77
2022-08-27T13:26:06.970Z,27.51
2022-08-27T13:28:38.955Z,27.45
2022-08-27T13:31:10.320Z,27.45
2022-08-27T13:33:42.239Z,27.76
2022-08-27T13:36:12.444Z,27.21
2022-08-27T13:38:50.096Z,27.42
2022-08-27T13:41:30.236Z,28.25
2022-08-27T13:44:07.041Z,28.37
2022-08-27T13:46:48.788Z,28.27
2022-08-27T13:49:23.821Z,28.55
2022-08-27T13:52:02.722Z,29.23
2022-08-27T13:54:33.527Z,30.07
2022-08-27T13:57:11.255Z,30.81
2022-08-27T13:59:42.927Z,31.31
2022-08-27T14:02:33.360Z,31.32
2022-08-27T14:05:13.430Z,31.98
2022-08-27T14:07:48.664Z,31.96
2022-08-27T14:10:33.979Z,32.80
2022-08-27T14:13:09.536Z,32.17
2022-08-27T14:15:42.498Z,31.97
2022-08-27T14:18:37.151Z,32.53
2022-08-27T14:21:15.521Z,32.82
2022-08-27T14:23:44.706Z,32.71
2022-08-27T14:26:15.369Z,32.74
2022-08-27T14:28:46.507Z,32.44
2022-08-27T14:31:16.839Z,31.33
2022-08-27T14:33:46.515Z,31.13
2022-08-27T14:36:16.407Z,31.78
2022-08-27T14:38:49.167Z,32.36
2022-08-27T14:41:21.521Z,32.39
2022-08-27T14:43:52.436Z,32.42
2022-08-27T14:46:29.014Z,32.30
2022-08-27T14:49:02.025Z,32.76
2022-08-27T14:51:34.340Z,32.25
2022-08-27T14:54:03.290Z,32.23
2022-08-27T14:56:32.523Z,32.13
2022-08-27T14:59:03.411Z,31.88
2022-08-27T15:01:35.986Z,32.01
2022-08-27T15:04:07.255Z,31.11
2022-08-27T15:06:36.593Z,31.67
2022-08-27T15:09:07.127Z,31.81
2022-08-27T15:11:39.830Z,32.01
2022-08-27T15:14:17.678Z,32.86
2022-08-27T15:16:47.180Z,33.01
2022-08-27T15:19:16.624Z,33.59
2022-08-27T15:21:48.375Z,34.00
2022-08-27T15:24:22.467Z,33.28
2022-08-27T15:26:53.746Z,33.18
2022-08-27T15:29:24.677Z,32.73
2022-08-27T15:31:54.410Z,32.88
2022-08-27T15:34:23.851Z,32.87
2022-08-27T15:36:53.085Z,33.54
2022-08-27T15:39:22.237Z,33.40
2022-08-27T15:42:05.703Z,33.78
2022-08-27T15:44:39.810Z,34.01
2022-08-27T15:47:09.110Z,33.91
2022-08-27T15:49:38.872Z,34.47
2022-08-27T15:52:08.854Z,35.06
2022-08-27T15:54:38.441Z,35.00
2022-08-27T15:57:08.492Z,35.40
2022-08-27T15:59:39.146Z,36.18
2022-08-27T16:02:13.980Z,36.58
2022-08-27T16:04:43.404Z,36.71
2022-08-27T16:07:21.321Z,37.26
2022-08-27T16:09:50.667Z,37.44
2022-08-27T16:12:26.946Z,37.50
2022-08-27T16:14:58.364Z,37.06
2022-08-27T16:17:28.257Z,37.57
2022-08-27T16:19:57.702Z,37.95
2022-08-27T16:22:27.146Z,38.18
2022-08-27T16:24:56.360Z,37.89
2022-08-27T16:27:25.463Z,38.40
2022-08-27T16:29:54.732Z,39.18
2022-08-27T16:32:28.979Z,39.62
2022-08-27T16:34:58.217Z,39.70
2022-08-27T16:37:27.532Z,39.32
2022-08-27T16:39:56.934Z,39.26
2022-08-27T16:42:26.438Z,39.42
2022-08-27T16:44:55.541Z,39.85
2022-08-27T16:47:26.212Z,39.48
2022-08-27T16:50:24.159Z,39.84
2022-08-27T16:52:56.252Z,40.68
2022-08-27T16:55:25.416Z,40.30
2022-08-27T16:57:54.625Z,41.17
2022-08-27T17:00:26.684Z,41.26
2022-08-27T17:02:58.205Z,40.84
2022-08-27T17:05:35.111Z,40.80
2022-08-27T17:08:06.357Z,39.97
2022-08-27T17:10:45.767Z,39.56
2022-08-27T17:13:19.946Z,39.33
2022-08-27T17:15:53.617Z,39.87
2022-08-27T17:18:30.642Z,39.79
2022-08-27T17:21:02.133Z,38.62
2022-08-27T17:23:35.590Z,38.94
2022-08-27T17:26:07.519Z,39.77
2022-08-27T17:28:39.569Z,39.89
2022-08-27T17:31:14.291Z,39.78
2022-08-27T17:33:48.049Z,39.56
2022-08-27T17:36:19.883Z,40.51
2022-08-27T17:38:49.652Z,40.53
2022-08-27T17:41:33.440Z,41.22
2022-08-27T17:44:09.817Z,40.85
2022-08-27T17:46:39.296Z,41.63
2022-08-27T17:49:10.010Z,41.49
2022-08-27T17:51:39.224Z,41.78
2022-08-27T17:54:29.436Z,42.09
2022-08-27T17:56:59.273Z,42.93
2022-08-27T17:59:29.073Z,43.05
2022-08-27T18:01:58.931Z,42.97
2022-08-27T18:04:29.531Z,43.02
2022-08-27T18:06:58.941Z,43.28
2022-08-27T18:09:28.100Z,42.98
2022-08-27T18:11:57.373Z,43.37
2022-08-27T18:14:26.591Z,43.11
2022-08-27T18:16:55.942Z,43.06
2022-08-27T18:19:25.503Z,43.72
2022-08-27T18:21:56.080Z,43.22
2022-08-27T18:24:25.457Z,44.38
2022-08-27T18:26:57.764Z,43.77
2022-08-27T18:29:27.033Z,44.47
2022-08-27T18:31:56.203Z,43.99
2022-08-27T18:34:25.341Z,44.21
2022-08-27T18:36:56.004Z,44.09
2022-08-27T18:39:25.708Z,44.45
2022-08-27T18:41:56.191Z,43.55
2022-08-27T18:44:25.494Z,43.71
2022-08-27T18:46:54.895Z,44.21
2022-08-27T18:49:25.914Z,44.27
2022-08-27T18:51:57.290Z,43.92
2022-08-27T18:54:27.433Z,44.31
2022-08-27T18:56:56.864Z,44.03
2022-08-27T18:59:27.314Z,43.73
2022-08-27T19:01:57.371Z,43.46
2022-08-27T19:04:34.926Z,43.34
2022-08-27T19:07:05.648Z,44.14
2022-08-27T19:09:35.091Z,43.80
2022-08-27T19:12:05.201Z,43.85
2022-08-27T19:14:34.437Z,43.72
2022-08-27T19:17:03.937Z,43.83
2022-08-27T19:19:33.413Z,44.38
2022-08-27T19:22:03.904Z,44.97
2022-08-27T19:24:39.936Z,45.54
2022-08-27T19:27:09.613Z,45.51
2022-08-27T19:29:38.772Z,45.91
2022-08-27T19:32:08.151Z,45.88
2022-08-27T19:34:37.731Z,46.54
2022-08-27T19:37:09.445Z,47.00
2022-08-27T19:39:40.118Z,47.62
2022-08-27T19:42:09.909Z,47.84
2022-08-27T19:44:39.153Z,48.89
2022-08-27T19:47:11.038Z,49.31
2022-08-27T19:49:41.992Z,48.99
2022-08-27T19:52:11.372Z,49.74
2022-08-27T19:54:56.836Z,50.09
2022-08-27T19:57:31.283Z,50.67
2022-08-27T20:00:00.838Z,50.92
2022-08-27T20:02:30.482Z,51.79
2022-08-27T20:05:16.859Z,52.17
2022-08-27T20:07:47.145Z,52.13
2022-08-27T20:10:18.717Z,52.26
2022-08-27T20:12:47.883Z,52.67
2022-08-27T20:15:17.453Z,52.54
2022-08-27T20:17:47.280Z,52.51
2022-08-27T20:20:24.138Z,52.33
2022-08-27T20:22:55.234Z,52.56
2022-08-27T20:25:26.551Z,52.39
2022-08-27T20:27:55.951Z,52.38
2022-08-27T20:30:30.165Z,52.82
2022-08-27T20:33:00.125Z,52.92
2022-08-27T20:35:30.035Z,52.66
2022-08-27T20:37:59.399Z,52.84
2022-08-27T20:40:31.673Z,53.12
2022-08-27T20:43:01.361Z,53.10
2022-08-27T20:45:33.502Z,53.98
2022-08-27T20:48:04.259Z,52.80
2022-08-27T20:50:33.916Z,52.45
2022-08-27T20:53:03.174Z,52.53
2022-08-27T20:55:33.916Z,52.39
2022-08-27T20:58:20.561Z,52.55
2022-08-27T21:00:57.749Z,52.54
2022-08-27T21:03:27.169Z,52.06
2022-08-27T21:05:56.575Z,52.59
2022-08-27T21:08:32.736Z,52.43
2022-08-27T21:11:09.561Z,52.62
2022-08-27T21:13:54.907Z,52.49
2022-08-27T21:16:26.180Z,52.16
2022-08-27T21:18:55.862Z,52.26
2022-08-27T21:21:25.528Z,52.28
2022-08-27T21:23:54.719Z,52.34
2022-08-27T21:26:27.211Z,52.68
2022-08-27T21:28:56.217Z,52.86
2022-08-27T21:31:26.120Z,52.47
2022-08-27T21:33:55.729Z,51.87
2022-08-27T21:36:25.411Z,52.09
2022-08-27T21:38:54.629Z,52.12
2022-08-27T21:41:25.807Z,51.99
2022-08-27T21:43:55.274Z,52.02
2022-08-27T21:46:24.635Z,51.74
2022-08-27T21:48:58.545Z,51.78
2022-08-27T21:51:31.977Z,51.56
2022-08-27T21:54:01.859Z,51.67
2022-08-27T21:56:33.567Z,51.46
2022-08-27T21:59:03.006Z,51.47
2022-08-27T22:01:32.219Z,52.02
2022-08-27T22:04:01.976Z,52.14
2022-08-27T22:06:31.344Z,52.25
2022-08-27T22:09:00.581Z,51.85
2022-08-27T22:11:34.338Z,52.03
2022-08-27T22:14:06.897Z,52.47
2022-08-27T22:16:36.315Z,52.07
2022-08-27T22:19:05.576Z,51.82
2022-08-27T22:21:35.893Z,52.05
2022-08-27T22:24:06.112Z,52.22
2022-08-27T22:26:36.849Z,52.47
2022-08-27T22:29:07.415Z,52.96
2022-08-27T22:31:36.858Z,52.87
2022-08-27T22:34:06.171Z,53.27
2022-08-27T22:36:36.326Z,53.29
2022-08-27T22:39:05.726Z,53.83
2022-08-27T22:41:36.285Z,54.45
2022-08-27T22:44:07.147Z,54.17
2022-08-27T22:46:36.745Z,54.05
2022-08-27T22:49:06.218Z,55.31
2022-08-27T22:51:35.544Z,55.43
2022-08-27T22:54:04.726Z,55.05
2022-08-27T22:56:35.342Z,55.61
2022-08-27T22:59:07.453Z,55.30
2022-08-27T23:01:37.245Z,55.56
2022-08-27T23:04:07.491Z,55.96
2022-08-27T23:06:36.850Z,55.88
2022-08-27T23:09:06.201Z,55.61
2022-08-27T23:11:38.485Z,55.85
2022-08-27T23:14:07.769Z,55.30
2022-08-27T23:16:37.369Z,55.39
2022-08-27T23:19:06.506Z,55.62
2022-08-27T23:21:36.348Z,55.46
2022-08-27T23:24:06.260Z,55.41
2022-08-27T23:26:52.532Z,56.44
2022-08-27T23:29:23.506Z,56.09
2022-08-27T23:31:53.851Z,55.95
2022-08-27T23:34:23.988Z,55.76
2022-08-27T23:36:53.324Z,55.76
2022-08-27T23:39:22.485Z,56.52
2022-08-27T23:41:51.719Z,55.79
2022-08-27T23:44:22.320Z,56.36
2022-08-27T23:46:51.524Z,56.69
2022-08-27T23:49:20.808Z,56.75
2022-08-27T23:51:50.268Z,56.90
2022-08-27T23:54:19.504Z,56.70
2022-08-27T23:56:48.920Z,57.09
2022-08-27T23:59:18.214Z,56.62
